KIGM

Kingman Airport

Kingman, Arizona, USA
METAR KIGM 151551Z AUTO 11004KT 10SM BKN120 08/M07 A3021 RMK AO2 SLP202 T00831067
Observed Flight Rules
Dec-15 @ 15:51 UTC (13 minutes ago) Visual Flight Rules
Wind Visibility Clouds
110° at 4 knots 10 miles
  • Broken at 12,000' AGL
Temperatures Readings
Current 8°C / 46°F
Dewpoint -7°C / 19°F
Humidity 34%
Altimeter 30.21" Hg
Pressure 1020.2 hPa
Elevation 1032
METAR KIGM 151551Z AUTO 11004KT 10SM BKN120 08/M07 A3021 RMK AO2 SLP202 T00831067
Observed Flight Rules
Dec-15 @ 15:51 UTC
(13 minutes ago)
VFR
Wind Visibility
110° at 4 knots 10 miles
Clouds
  • Broken at 12,000' AGL
Temperature Dewpoint
8°C / 46°F -7°C / 19°F
Humidity Altimeter Pressure
34% 30.21" Hg 1020.2 hPa